Terminal Aerodrome Forecast
Issued by NWS

Home | Current Version | Previous Version | Graphics & Text | Print | Product List | Glossary On
Versions: 1 2 3 4 5 6 7 8 9 10 11 12 13 14 15 16 17 18
310
FTUS43 KABR 271502 AAB
TAFMBG
TAF AMD
KMBG 271502Z 2715/2812 01005KT P6SM OVC011
      TEMPO 2717/2719 SCT011
     FM271900 04010KT P6SM BKN250=

USA.gov is the U.S. government's official web portal to all federal, state and local government web resources and services.